createdAt,value
2016-12-28T00:00:57.215Z,75.62
2016-12-28T00:02:07.548Z,75.81
2016-12-28T00:03:17.883Z,75.72
2016-12-28T00:04:27.899Z,75.91
2016-12-28T00:05:37.931Z,75.72
2016-12-28T00:06:47.956Z,75.43
2016-12-28T00:07:58.300Z,75.72
2016-12-28T00:09:08.315Z,75.72
2016-12-28T00:10:18.345Z,75.72
2016-12-28T00:11:28.042Z,75.81
2016-12-28T00:12:37.437Z,75.62
2016-12-28T00:13:46.845Z,76.01
2016-12-28T00:14:56.867Z,75.81
2016-12-28T00:16:06.923Z,75.81
2016-12-28T00:17:16.935Z,75.72
2016-12-28T00:18:26.961Z,75.91
2016-12-28T00:19:36.969Z,75.81
2016-12-28T00:20:47.318Z,75.81
2016-12-28T00:21:57.051Z,75.81
2016-12-28T00:23:07.069Z,75.62
2016-12-28T00:24:16.779Z,75.81
2016-12-28T00:25:26.494Z,75.62
2016-12-28T00:26:35.895Z,75.81
2016-12-28T00:27:45.915Z,75.81
2016-12-28T00:28:55.941Z,75.81
2016-12-28T00:30:05.644Z,75.62
2016-12-28T00:31:15.975Z,75.62
2016-12-28T00:32:26.317Z,75.62
2016-12-28T00:33:36.013Z,75.72
2016-12-28T00:34:45.423Z,75.91
2016-12-28T00:35:55.444Z,75.81
2016-12-28T00:37:05.773Z,75.81
2016-12-28T00:38:15.490Z,76.01
2016-12-28T00:39:25.498Z,75.62
2016-12-28T00:40:35.208Z,75.59
2016-12-28T00:41:44.930Z,76.01
2016-12-28T00:42:54.639Z,76.01
2016-12-28T00:44:04.024Z,76.01
2016-12-28T00:45:14.380Z,75.87
2016-12-28T00:46:24.702Z,75.87
2016-12-28T00:47:34.720Z,75.91
2016-12-28T00:48:44.745Z,75.87
2016-12-28T00:49:54.772Z,75.72
2016-12-28T00:51:04.779Z,75.81
2016-12-28T00:52:15.105Z,76.01
2016-12-28T00:53:25.122Z,75.72
2016-12-28T00:54:35.439Z,75.91
2016-12-28T00:55:45.501Z,75.4
2016-12-28T00:56:55.835Z,75.72
2016-12-28T00:58:05.854Z,75.53
2016-12-28T00:59:15.870Z,75.62
2016-12-28T01:00:26.207Z,75.72
2016-12-28T01:01:35.594Z,75.62
2016-12-28T01:02:45.930Z,75.53
2016-12-28T01:03:56.255Z,75.43
2016-12-28T01:05:06.275Z,75.43
2016-12-28T01:06:16.341Z,75.53
2016-12-28T01:07:26.057Z,75.43
2016-12-28T01:08:36.100Z,75.62
2016-12-28T01:09:46.416Z,75.62
2016-12-28T01:10:56.118Z,75.34
2016-12-28T01:12:06.450Z,75.34
2016-12-28T01:13:16.479Z,75.62
2016-12-28T01:14:26.505Z,75.34
2016-12-28T01:15:36.878Z,75.62
2016-12-28T01:16:47.250Z,75.53
2016-12-28T01:17:56.983Z,75.34
2016-12-28T01:19:07.309Z,75.72
2016-12-28T01:20:17.638Z,75.24
2016-12-28T01:21:27.332Z,75.24
2016-12-28T01:22:37.674Z,75.62
2016-12-28T01:23:48.071Z,75.24
2016-12-28T01:24:58.401Z,75.43
2016-12-28T01:26:08.719Z,75.43
2016-12-28T01:27:18.738Z,75.81
2016-12-28T01:28:29.068Z,75.81
2016-12-28T01:29:39.415Z,75.62
2016-12-28T01:30:49.751Z,75.81
2016-12-28T01:31:59.465Z,75.91
2016-12-28T01:33:09.479Z,75.34
2016-12-28T01:34:19.497Z,75.91
2016-12-28T01:35:29.229Z,75.91
2016-12-28T01:36:39.560Z,75.81
2016-12-28T01:37:49.587Z,75.91
2016-12-28T01:38:59.917Z,75.24
2016-12-28T01:40:10.244Z,76.1
2016-12-28T01:41:19.952Z,75.34
2016-12-28T01:42:30.308Z,75.34
2016-12-28T01:43:40.325Z,75.43
2016-12-28T01:44:50.342Z,75.53
2016-12-28T01:46:00.680Z,75.43
2016-12-28T01:47:10.691Z,75.34
2016-12-28T01:48:20.711Z,75.34
2016-12-28T01:49:31.038Z,75.43
2016-12-28T01:50:41.601Z,75.24
2016-12-28T01:51:51.917Z,75.91
2016-12-28T01:53:01.935Z,75.62
2016-12-28T01:54:11.947Z,75.91
2016-12-28T01:55:21.972Z,75.43
2016-12-28T01:56:32.004Z,75.91
2016-12-28T01:57:41.395Z,75.62
2016-12-28T01:58:51.436Z,75.72
2016-12-28T02:00:01.154Z,75.62
2016-12-28T02:01:11.164Z,75.24
2016-12-28T02:02:21.497Z,75.24
2016-12-28T02:03:31.812Z,75.24
2016-12-28T02:04:41.830Z,75.91
2016-12-28T02:05:52.166Z,75.34
2016-12-28T02:07:02.487Z,75.34
2016-12-28T02:08:12.825Z,75.91
2016-12-28T02:09:22.840Z,75.91
2016-12-28T02:10:32.863Z,75.81
2016-12-28T02:11:43.184Z,75.34
2016-12-28T02:12:53.230Z,75.34
2016-12-28T02:14:03.247Z,75.91
2016-12-28T02:15:13.585Z,75.81
2016-12-28T02:16:23.920Z,75.91
2016-12-28T02:17:33.956Z,75.81
2016-12-28T02:18:43.964Z,75.91
2016-12-28T02:19:53.371Z,75.81
2016-12-28T02:21:03.788Z,75.72
2016-12-28T02:22:13.519Z,76.01
2016-12-28T02:23:23.850Z,75.81
2016-12-28T02:24:34.216Z,75.81
2016-12-28T02:25:44.556Z,75.62
2016-12-28T02:26:54.250Z,75.68
2016-12-28T02:28:04.283Z,76.25
2016-12-28T02:29:14.356Z,75.96
2016-12-28T02:30:24.704Z,76.16
2016-12-28T02:31:34.726Z,76.16
2016-12-28T02:32:45.045Z,75.96
2016-12-28T02:33:55.376Z,75.84
2016-12-28T02:35:05.710Z,75.74
2016-12-28T02:36:15.427Z,75.93
2016-12-28T02:37:25.443Z,76.12
2016-12-28T02:38:35.141Z,76.03
2016-12-28T02:39:45.152Z,76.21
2016-12-28T02:40:55.188Z,76.21
2016-12-28T02:42:05.509Z,75.74
2016-12-28T02:43:14.921Z,75.64
2016-12-28T02:44:24.936Z,75.84
2016-12-28T02:45:35.254Z,75.45
2016-12-28T02:46:45.561Z,75.45
2016-12-28T02:47:54.367Z,75.45
2016-12-28T02:49:04.067Z,75.51
2016-12-28T02:50:14.094Z,75.6
2016-12-28T02:51:24.130Z,75.79
2016-12-28T02:52:34.454Z,75.51
2016-12-28T02:53:44.459Z,75.89
2016-12-28T02:54:54.475Z,75.79
2016-12-28T02:56:04.494Z,75.79
2016-12-28T02:57:14.539Z,75.7
2016-12-28T02:58:24.551Z,75.79
2016-12-28T02:59:34.571Z,75.6
2016-12-28T03:00:44.908Z,75.79
2016-12-28T03:32:48.340Z,72.19
2016-12-28T03:33:58.378Z,72.1
2016-12-28T03:35:08.390Z,73.61
2016-12-28T03:36:18.930Z,75.23
2016-12-28T03:37:29.266Z,75.42
2016-12-28T03:38:38.997Z,76.36
2016-12-28T03:39:49.010Z,75.93
2016-12-28T03:40:59.326Z,76.87
2016-12-28T03:42:09.657Z,76.78
2016-12-28T03:43:19.995Z,76.97
2016-12-28T03:44:30.320Z,76.78
2016-12-28T03:45:40.332Z,76.87
2016-12-28T03:46:50.669Z,76.73
2016-12-28T03:48:00.671Z,76.73
2016-12-28T03:49:11.005Z,76.63
2016-12-28T03:50:20.387Z,76.44
2016-12-28T03:51:30.735Z,76.63
2016-12-28T03:52:40.759Z,76.44
2016-12-28T03:53:51.089Z,76.39
2016-12-28T03:55:01.421Z,76.29
2016-12-28T03:56:11.443Z,76.1
2016-12-28T03:57:21.760Z,75.91
2016-12-28T03:58:31.771Z,75.62
2016-12-28T03:59:41.484Z,75.72
2016-12-28T04:00:50.574Z,75.34
2016-12-28T04:02:00.591Z,75.34
2016-12-28T04:03:10.593Z,75.53
2016-12-28T04:04:20.289Z,75.85
2016-12-28T04:05:30.603Z,75.81
2016-12-28T04:06:40.918Z,75.67
2016-12-28T04:07:51.261Z,75.57
2016-12-28T04:09:01.272Z,75.76
2016-12-28T04:10:11.285Z,75.76
2016-12-28T04:11:21.621Z,75.76
2016-12-28T04:12:31.633Z,75.76
2016-12-28T04:13:41.654Z,75.67
2016-12-28T04:14:51.674Z,75.67
2016-12-28T04:16:01.701Z,75.85
2016-12-28T04:17:12.042Z,75.67
2016-12-28T04:18:22.359Z,75.76
2016-12-28T04:19:32.372Z,75.67
2016-12-28T04:20:42.372Z,75.76
2016-12-28T04:21:52.391Z,75.76
2016-12-28T04:23:02.128Z,75.67
2016-12-28T04:24:12.142Z,75.76
2016-12-28T04:25:22.485Z,75.47
2016-12-28T04:26:32.513Z,75.28
2016-12-28T04:27:42.527Z,75.47
2016-12-28T04:28:52.539Z,75.38
2016-12-28T04:30:02.552Z,75.57
2016-12-28T04:31:12.562Z,75.76
2016-12-28T04:32:22.598Z,75.47
2016-12-28T04:33:32.928Z,75.38
2016-12-28T04:34:43.257Z,75.67
2016-12-28T04:35:53.279Z,75.47
2016-12-28T04:37:03.316Z,75.47
2016-12-28T04:38:13.639Z,75.85
2016-12-28T04:39:23.660Z,75.57
2016-12-28T04:40:33.666Z,75.47
2016-12-28T04:41:42.748Z,75.47
2016-12-28T04:42:53.079Z,75.47
2016-12-28T04:44:03.093Z,75.57
2016-12-28T04:45:13.412Z,75.85
2016-12-28T04:46:23.744Z,75.85
2016-12-28T04:47:34.061Z,75.67
2016-12-28T04:48:44.079Z,75.38
2016-12-28T04:49:54.409Z,75.47
2016-12-28T04:51:04.736Z,75.38
2016-12-28T04:52:14.743Z,75.47
2016-12-28T04:53:25.061Z,75.38
2016-12-28T04:54:34.778Z,75.76
2016-12-28T04:55:44.798Z,75.67
2016-12-28T04:56:54.809Z,75.85
2016-12-28T04:58:04.827Z,75.47
2016-12-28T04:59:15.190Z,75.57
2016-12-28T05:00:25.529Z,75.85
2016-12-28T05:01:35.850Z,75.47
2016-12-28T05:02:46.219Z,75.85
2016-12-28T05:03:56.240Z,75.38
2016-12-28T05:05:06.262Z,75.47
2016-12-28T05:06:16.264Z,75.47
2016-12-28T05:07:26.588Z,75.47
2016-12-28T05:08:36.607Z,75.47
2016-12-28T05:09:46.964Z,75.67
2016-12-28T05:10:56.680Z,75.85
2016-12-28T05:12:06.697Z,75.47
2016-12-28T05:13:17.030Z,75.85
2016-12-28T05:14:27.047Z,75.57
2016-12-28T05:15:37.049Z,75.57
2016-12-28T05:16:47.317Z,75.67
2016-12-28T05:17:57.644Z,75.67
2016-12-28T05:19:07.335Z,75.67
2016-12-28T05:20:17.682Z,75.76
2016-12-28T05:21:28.009Z,75.76
2016-12-28T05:22:38.020Z,75.76
2016-12-28T05:23:48.028Z,75.76
2016-12-28T05:24:58.055Z,75.76
2016-12-28T05:26:08.395Z,75.85
2016-12-28T05:27:18.428Z,75.67
2016-12-28T05:28:28.762Z,75.57
2016-12-28T05:29:38.803Z,75.85
2016-12-28T05:30:49.131Z,75.76
2016-12-28T05:31:59.466Z,75.76
2016-12-28T05:33:09.823Z,75.76
2016-12-28T05:34:20.149Z,75.76
2016-12-28T05:35:30.471Z,75.76
2016-12-28T05:36:40.193Z,75.67
2016-12-28T05:37:50.516Z,75.76
2016-12-28T05:39:00.837Z,75.76
2016-12-28T05:40:10.849Z,75.57
2016-12-28T05:41:20.864Z,75.57
2016-12-28T05:42:31.189Z,75.76
2016-12-28T05:43:41.231Z,75.76
2016-12-28T05:44:51.255Z,75.76
2016-12-28T05:46:01.578Z,75.76
2016-12-28T05:47:11.596Z,75.19
2016-12-28T05:48:21.317Z,75.09
2016-12-28T05:49:31.650Z,75.09
2016-12-28T05:50:41.660Z,75.47
2016-12-28T05:51:51.980Z,75.28
2016-12-28T05:53:02.300Z,75.47
2016-12-28T05:54:12.622Z,75.09
2016-12-28T05:55:22.656Z,75.28
2016-12-28T05:56:32.997Z,75.47
2016-12-28T05:57:43.014Z,75.28
2016-12-28T05:58:53.350Z,75.28
2016-12-28T06:00:03.673Z,75.47
2016-12-28T06:01:13.987Z,75.38
2016-12-28T06:02:23.995Z,75.38
2016-12-28T06:03:34.050Z,75.28
2016-12-28T06:04:44.071Z,75.19
2016-12-28T06:05:53.763Z,75.28
2016-12-28T06:07:04.094Z,75.28
2016-12-28T06:08:14.111Z,75.28
2016-12-28T06:09:24.118Z,75.38
2016-12-28T06:10:34.122Z,75.47
2016-12-28T06:11:44.453Z,75.19
2016-12-28T06:12:54.796Z,75.28
2016-12-28T06:14:05.131Z,75.09
2016-12-28T06:15:15.151Z,75.19
2016-12-28T06:16:24.846Z,75.19
2016-12-28T06:17:34.852Z,75.28
2016-12-28T06:18:44.553Z,75.38
2016-12-28T06:19:54.564Z,75.28
2016-12-28T06:21:04.895Z,75.28
2016-12-28T06:22:14.913Z,75.09
2016-12-28T06:23:25.232Z,75.47
2016-12-28T06:24:35.249Z,75.28
2016-12-28T06:25:45.580Z,75.57
2016-12-28T06:26:55.598Z,75.19
2016-12-28T06:28:05.904Z,75.85
2016-12-28T06:29:15.916Z,75.28
2016-12-28T06:30:25.943Z,75.38
2016-12-28T06:31:36.312Z,75.47
2016-12-28T06:32:46.026Z,75.32
2016-12-28T06:33:56.061Z,75.32
2016-12-28T06:35:05.759Z,75.28
2016-12-28T06:36:15.460Z,75.42
2016-12-28T06:37:25.200Z,75.32
2016-12-28T06:38:35.216Z,75.51
2016-12-28T06:39:45.548Z,75.13
2016-12-28T06:40:55.579Z,75.32
2016-12-28T06:42:05.611Z,75.23
2016-12-28T06:43:15.302Z,75.23
2016-12-28T06:44:25.316Z,75.04
2016-12-28T06:45:35.360Z,75.23
2016-12-28T06:46:45.687Z,75.7
2016-12-28T06:47:56.004Z,75.32
2016-12-28T06:49:05.711Z,75.42
2016-12-28T06:50:15.103Z,75.32
2016-12-28T06:51:25.119Z,75.32
2016-12-28T06:52:35.125Z,75.32
2016-12-28T06:53:45.153Z,75.23
2016-12-28T06:54:55.475Z,75.32
2016-12-28T06:56:05.804Z,75.23
2016-12-28T06:57:16.152Z,75.13
2016-12-28T06:58:26.543Z,75.13
2016-12-28T06:59:36.555Z,75.13
2016-12-28T07:00:46.574Z,75.23
2016-12-28T07:01:56.900Z,75.32
2016-12-28T07:03:06.612Z,75.04
2016-12-28T07:04:16.948Z,74.88
2016-12-28T07:05:26.973Z,74.85
2016-12-28T07:06:36.983Z,74.79
2016-12-28T07:07:47.302Z,74.88
2016-12-28T07:08:57.313Z,74.88
2016-12-28T07:10:07.646Z,74.88
2016-12-28T07:11:17.667Z,75.26
2016-12-28T07:12:27.365Z,74.88
2016-12-28T07:13:37.062Z,75.26
2016-12-28T07:14:47.083Z,75.45
2016-12-28T07:15:57.084Z,75.36
2016-12-28T07:17:07.414Z,74.88
2016-12-28T07:18:17.442Z,75.04
2016-12-28T07:19:27.151Z,75.42
2016-12-28T07:20:36.855Z,75.13
2016-12-28T07:21:46.863Z,75.04
2016-12-28T07:22:56.879Z,75.42
2016-12-28T07:24:06.580Z,74.75
2016-12-28T07:25:16.292Z,74.85
2016-12-28T07:26:26.626Z,74.85
2016-12-28T07:27:36.650Z,74.94
2016-12-28T07:28:46.667Z,75.04
2016-12-28T07:29:56.714Z,75.13
2016-12-28T07:31:06.749Z,75.13
2016-12-28T07:32:16.776Z,74.85
2016-12-28T07:33:27.124Z,75.04
2016-12-28T07:34:37.460Z,75.32
2016-12-28T07:35:47.797Z,75.32
2016-12-28T07:36:58.139Z,75.32
2016-12-28T07:38:08.466Z,75.51
2016-12-28T07:39:18.181Z,75.7
2016-12-28T07:40:28.503Z,75.04
2016-12-28T07:41:38.837Z,75.6
2016-12-28T07:42:49.197Z,74.9
2016-12-28T07:43:59.533Z,75.19
2016-12-28T07:45:09.545Z,75.32
2016-12-28T07:46:19.617Z,75.42
2016-12-28T07:47:28.999Z,75.38
2016-12-28T07:48:39.343Z,75.19
2016-12-28T07:49:49.367Z,75.28
2016-12-28T07:50:59.386Z,75.28
2016-12-28T07:52:09.708Z,75.28
2016-12-28T07:53:20.035Z,75.09
2016-12-28T07:54:29.747Z,75.09
2016-12-28T07:55:40.075Z,75
2016-12-28T07:56:50.432Z,75.09
2016-12-28T07:58:00.452Z,75
2016-12-28T07:59:10.162Z,75.47
2016-12-28T08:00:20.202Z,75.28
2016-12-28T08:01:30.239Z,75
2016-12-28T08:02:40.564Z,75.09
2016-12-28T08:03:50.595Z,75.09
2016-12-28T08:05:00.636Z,75.09
2016-12-28T08:06:10.668Z,75.28
2016-12-28T08:07:20.710Z,75.28
2016-12-28T08:08:31.046Z,75.19
2016-12-28T08:09:41.377Z,75
2016-12-28T08:10:51.085Z,75.19
2016-12-28T08:12:01.418Z,75.19
2016-12-28T08:13:11.437Z,75.47
2016-12-28T08:14:21.758Z,74.71
2016-12-28T08:15:31.771Z,74.81
2016-12-28T08:16:41.472Z,75.09
2016-12-28T08:17:51.182Z,75.09
2016-12-28T08:19:01.495Z,74.43
2016-12-28T08:20:11.511Z,74.75
2016-12-28T08:21:21.855Z,74.62
2016-12-28T08:22:31.865Z,74.47
2016-12-28T08:23:42.231Z,74.37
2016-12-28T08:24:52.257Z,74.66
2016-12-28T08:26:02.593Z,74.66
2016-12-28T08:27:12.596Z,74.47
2016-12-28T08:28:22.931Z,73.99
2016-12-28T08:29:32.972Z,73.99
2016-12-28T08:30:43.304Z,73.8
2016-12-28T08:31:53.325Z,74.08
2016-12-28T08:33:03.663Z,73.8
2016-12-28T08:34:13.678Z,73.9
2016-12-28T08:35:23.990Z,73.93
2016-12-28T08:36:33.706Z,74.51
2016-12-28T08:37:44.032Z,74.69
2016-12-28T08:38:54.060Z,74.41
2016-12-28T08:40:04.060Z,74.6
2016-12-28T08:41:14.133Z,74.51
2016-12-28T08:42:24.158Z,74.6
2016-12-28T08:43:34.169Z,74.69
2016-12-28T08:44:43.602Z,74.51
2016-12-28T08:45:53.937Z,74.6
2016-12-28T08:47:03.976Z,74.69
2016-12-28T08:48:13.716Z,74.51
2016-12-28T08:49:24.039Z,74.88
2016-12-28T08:50:34.068Z,74.79
2016-12-28T08:51:44.114Z,74.69
2016-12-28T08:52:54.471Z,74.51
2016-12-28T08:54:04.484Z,74.69
2016-12-28T08:55:14.498Z,74.6
2016-12-28T08:56:24.825Z,74.69
2016-12-28T08:57:34.844Z,74.6
2016-12-28T08:58:45.168Z,74.41
2016-12-28T08:59:55.181Z,73.84
2016-12-28T09:01:04.585Z,73.84
2016-12-28T09:02:14.629Z,74.03
2016-12-28T09:03:24.341Z,73.84
2016-12-28T09:04:34.356Z,73.78
2016-12-28T09:05:44.376Z,73.88
2016-12-28T09:06:54.709Z,73.78
2016-12-28T09:08:05.039Z,73.97
2016-12-28T09:09:15.376Z,73.88
2016-12-28T09:10:25.392Z,73.49
2016-12-28T09:11:35.759Z,73.88
2016-12-28T09:12:45.166Z,73.82
2016-12-28T09:13:55.498Z,73.82
2016-12-28T09:15:05.517Z,73.34
2016-12-28T09:16:15.538Z,73.25
2016-12-28T09:17:25.571Z,73.44
2016-12-28T09:18:35.272Z,73.53
2016-12-28T09:19:44.975Z,73.44
2016-12-28T09:20:55.319Z,73.25
2016-12-28T09:22:05.646Z,73.25
2016-12-28T09:23:15.680Z,73.72
2016-12-28T09:24:25.405Z,74.04
2016-12-28T09:25:35.736Z,73.53
2016-12-28T09:26:46.048Z,73.91
2016-12-28T09:27:56.057Z,74.1
2016-12-28T09:29:06.377Z,73.82
2016-12-28T09:30:16.078Z,73.72
2016-12-28T09:31:25.795Z,73.91
2016-12-28T09:32:35.824Z,73.76
2016-12-28T09:33:45.524Z,73.85
2016-12-28T09:34:54.928Z,73.95
2016-12-28T09:36:05.262Z,74.14
2016-12-28T09:37:15.307Z,74.04
2016-12-28T09:38:25.637Z,73.95
2016-12-28T09:39:35.964Z,73.95
2016-12-28T09:40:46.296Z,74.14
2016-12-28T09:41:56.311Z,73.85
2016-12-28T09:43:06.332Z,73.76
2016-12-28T09:44:16.082Z,73.95
2016-12-28T09:45:26.109Z,74.04
2016-12-28T09:46:36.447Z,74.14
2016-12-28T09:47:46.790Z,73.95
2016-12-28T09:48:56.816Z,74.04
2016-12-28T09:50:06.854Z,74.04
2016-12-28T09:51:16.575Z,73.8
2016-12-28T09:52:26.626Z,74.08
2016-12-28T09:53:36.039Z,73.8
2016-12-28T09:54:45.764Z,74.27
2016-12-28T09:55:56.102Z,74.08
2016-12-28T09:57:05.827Z,74.14
2016-12-28T09:58:15.849Z,74.24
2016-12-28T09:59:26.192Z,74.14
2016-12-28T10:00:36.513Z,74.18
2016-12-28T10:01:46.839Z,73.61
2016-12-28T10:02:56.252Z,73.8
2016-12-28T10:04:06.274Z,73.7
2016-12-28T10:05:16.610Z,74.18
2016-12-28T10:06:26.641Z,73.7
2016-12-28T10:07:36.970Z,73.8
2016-12-28T10:08:47.011Z,73.8
2016-12-28T10:09:56.718Z,73.99
2016-12-28T10:11:06.753Z,73.99
2016-12-28T10:12:17.073Z,73.7
2016-12-28T10:13:27.096Z,73.8
2016-12-28T10:14:36.483Z,73.8
2016-12-28T10:15:46.825Z,73.89
2016-12-28T10:16:57.173Z,73.61
2016-12-28T10:18:07.191Z,73.89
2016-12-28T10:19:17.245Z,73.7
2016-12-28T10:20:27.254Z,73.8
2016-12-28T10:21:37.285Z,73.7
2016-12-28T10:22:47.316Z,73.99
2016-12-28T10:23:57.024Z,73.8
2016-12-28T10:25:07.361Z,73.61
2016-12-28T10:26:17.392Z,73.7
2016-12-28T10:27:27.109Z,74.08
2016-12-28T10:28:37.445Z,74.08
2016-12-28T10:29:47.767Z,73.99
2016-12-28T10:30:57.786Z,73.74
2016-12-28T10:32:07.825Z,73.7
2016-12-28T10:33:18.168Z,73.74
2016-12-28T10:34:27.873Z,73.55
2016-12-28T10:35:38.224Z,73.65
2016-12-28T10:36:48.255Z,73.36
2016-12-28T10:37:58.283Z,73.65
2016-12-28T10:39:08.322Z,73.26
2016-12-28T10:40:18.336Z,73.65
2016-12-28T10:41:28.966Z,73.55
2016-12-28T10:42:39.470Z,73.45
2016-12-28T10:43:50.168Z,73.83
2016-12-28T10:45:00.459Z,73.45
2016-12-28T10:46:10.340Z,73.65
2016-12-28T10:47:20.251Z,73.65
2016-12-28T10:48:31.497Z,73.65
2016-12-28T10:49:41.742Z,73.55
2016-12-28T10:50:52.068Z,73.55
2016-12-28T10:52:02.283Z,73.55
2016-12-28T10:53:12.732Z,72.97
2016-12-28T10:54:23.811Z,73.39
2016-12-28T10:55:34.518Z,73.39
2016-12-28T10:56:44.863Z,72.82
2016-12-28T10:57:54.901Z,72.82
2016-12-28T10:59:04.909Z,73.01
2016-12-28T11:00:14.920Z,72.92
2016-12-28T11:01:25.020Z,73.01
2016-12-28T11:02:35.510Z,73.01
2016-12-28T11:03:45.708Z,72.67
2016-12-28T11:04:56.035Z,72.44
2016-12-28T11:06:06.644Z,72.92
2016-12-28T11:07:16.769Z,73.58
2016-12-28T11:08:26.798Z,73.01
2016-12-28T11:09:36.550Z,73.49
2016-12-28T11:10:46.559Z,73.68
2016-12-28T11:11:57.199Z,73.3
2016-12-28T11:13:07.112Z,73.96
2016-12-28T11:14:17.297Z,74.16
2016-12-28T11:15:27.726Z,73.68
2016-12-28T11:16:38.336Z,74.16
2016-12-28T11:17:50.439Z,74.25
2016-12-28T11:19:01.058Z,74.35
2016-12-28T11:20:13.958Z,74.25
2016-12-28T11:21:26.901Z,74.02
2016-12-28T11:22:38.746Z,74.02
2016-12-28T11:23:49.269Z,74.21
2016-12-28T11:25:00.835Z,74.12
2016-12-28T11:26:14.392Z,73.83
2016-12-28T11:27:26.875Z,73.93
2016-12-28T11:28:39.101Z,74.02
2016-12-28T11:29:49.291Z,74.21
2016-12-28T11:30:59.856Z,74.02
2016-12-28T11:32:10.064Z,74.02
2016-12-28T11:33:20.627Z,74.02
2016-12-28T11:34:30.775Z,74.02
2016-12-28T11:35:42.090Z,74.02
2016-12-28T11:36:52.482Z,74.21
2016-12-28T11:38:02.806Z,73.93
2016-12-28T11:39:12.843Z,73.93
2016-12-28T11:40:23.267Z,74.02
2016-12-28T11:41:33.377Z,74.02
2016-12-28T11:42:43.401Z,73.83
2016-12-28T11:43:52.492Z,73.93
2016-12-28T11:45:02.508Z,73.83
2016-12-28T11:46:12.522Z,74.12
2016-12-28T11:47:22.228Z,74.02
2016-12-28T11:48:32.554Z,73.74
2016-12-28T11:49:41.956Z,74.12
2016-12-28T11:50:51.973Z,74.02
2016-12-28T11:52:01.519Z,74.69
2016-12-28T11:53:11.934Z,74.6
2016-12-28T11:54:22.717Z,74.65
2016-12-28T11:55:34.032Z,74.84
2016-12-28T11:56:43.991Z,74.65
2016-12-28T11:57:54.941Z,74.88
2016-12-28T11:59:05.483Z,74.84
2016-12-28T12:00:16.688Z,74.75
2016-12-28T12:01:26.825Z,74.88
2016-12-28T12:02:37.213Z,74.46
2016-12-28T12:03:48.255Z,74.21
2016-12-28T12:04:58.613Z,74.27
2016-12-28T12:06:09.215Z,74.37
2016-12-28T12:07:19.171Z,74.46
2016-12-28T12:08:30.196Z,74.65
2016-12-28T12:09:41.355Z,74.75
2016-12-28T12:10:52.399Z,74.56
2016-12-28T12:12:03.636Z,74.37
2016-12-28T12:13:14.198Z,74.75
2016-12-28T12:14:24.577Z,74.75
2016-12-28T12:15:35.210Z,74.75
2016-12-28T12:16:46.534Z,74.65
2016-12-28T12:17:58.040Z,74.37
2016-12-28T12:19:08.673Z,74.65
2016-12-28T12:20:19.410Z,74.75
2016-12-28T12:21:31.287Z,74.84
2016-12-28T12:22:42.501Z,74.37
2016-12-28T12:23:55.536Z,74.56
2016-12-28T12:25:06.293Z,74.56
2016-12-28T12:26:16.658Z,74.65
2016-12-28T12:27:27.003Z,74.37
2016-12-28T12:28:37.404Z,74.65
2016-12-28T12:29:48.156Z,74.56
2016-12-28T12:30:58.906Z,74.65
2016-12-28T12:32:09.648Z,74.56
2016-12-28T12:33:19.612Z,74.46
2016-12-28T12:34:30.368Z,74.84
2016-12-28T12:35:41.105Z,74.75
2016-12-28T12:36:51.461Z,74.56
2016-12-28T12:38:02.192Z,74.75
2016-12-28T12:39:12.559Z,74.65
2016-12-28T12:40:22.516Z,74.75
2016-12-28T12:41:32.867Z,74.75
2016-12-28T12:42:43.615Z,74.56
2016-12-28T12:43:54.402Z,75.04
2016-12-28T12:45:04.770Z,74.75
2016-12-28T12:46:14.766Z,74.37
2016-12-28T12:47:25.138Z,74.75
2016-12-28T12:48:35.879Z,74.84
2016-12-28T12:49:46.620Z,74.65
2016-12-28T12:50:57.367Z,74.84
2016-12-28T12:52:06.927Z,74.56
2016-12-28T12:53:17.273Z,74.84
2016-12-28T12:54:28.046Z,74.84
2016-12-28T12:55:38.806Z,74.75
2016-12-28T12:56:48.783Z,74.94
2016-12-28T12:57:59.150Z,74.84
2016-12-28T12:59:09.907Z,74.75
2016-12-28T13:00:19.865Z,74.84
2016-12-28T13:01:30.228Z,74.84
2016-12-28T13:02:40.577Z,74.94
2016-12-28T13:03:51.325Z,74.46
2016-12-28T13:05:01.742Z,74.56
2016-12-28T13:06:12.089Z,74.56
2016-12-28T13:07:22.451Z,74.71
2016-12-28T13:08:33.205Z,74.84
2016-12-28T13:09:43.598Z,74.65
2016-12-28T13:10:53.155Z,74.75
2016-12-28T13:12:03.511Z,74.84
2016-12-28T13:13:14.285Z,74.94
2016-12-28T13:14:25.050Z,74.84
2016-12-28T13:15:35.404Z,74.84
2016-12-28T13:16:45.793Z,74.8
2016-12-28T13:17:56.146Z,74.71
2016-12-28T13:19:06.508Z,74.71
2016-12-28T13:20:17.274Z,74.8
2016-12-28T13:21:27.235Z,74.56
2016-12-28T13:22:37.617Z,74.9
2016-12-28T13:23:47.570Z,75.09
2016-12-28T13:24:57.915Z,75.28
2016-12-28T13:26:08.651Z,74.8
2016-12-28T13:27:19.400Z,74.9
2016-12-28T13:28:30.147Z,75.19
2016-12-28T13:29:40.493Z,75.28
2016-12-28T13:30:50.450Z,74.9
2016-12-28T13:32:01.212Z,75.67
2016-12-28T13:33:11.554Z,75.19
2016-12-28T13:34:21.946Z,75.09
2016-12-28T13:35:32.692Z,74.9
2016-12-28T13:36:43.041Z,75.28
2016-12-28T13:37:53.797Z,75.47
2016-12-28T13:39:04.182Z,75.09
2016-12-28T13:40:14.559Z,75.28
2016-12-28T13:41:24.914Z,75.05
2016-12-28T13:42:35.663Z,75.34
2016-12-28T13:43:46.038Z,75.34
2016-12-28T13:44:56.401Z,75.43
2016-12-28T13:46:06.752Z,75.34
2016-12-28T13:47:17.110Z,75.24
2016-12-28T13:48:27.869Z,75.24
2016-12-28T13:49:37.832Z,75.24
2016-12-28T13:50:48.216Z,74.96
2016-12-28T13:51:58.169Z,75.81
2016-12-28T13:53:08.508Z,75.43
2016-12-28T13:54:18.474Z,75.24
2016-12-28T13:55:29.219Z,75.43
2016-12-28T13:56:39.966Z,75.62
2016-12-28T13:57:50.729Z,75.24
2016-12-28T13:59:01.463Z,75.53
2016-12-28T14:00:11.824Z,75.21
2016-12-28T14:01:22.580Z,75.3
2016-12-28T14:02:33.354Z,75.59
2016-12-28T14:03:43.691Z,75.3
2016-12-28T14:04:54.060Z,75.87
2016-12-28T14:06:03.639Z,75.87
2016-12-28T14:07:13.989Z,75.87
2016-12-28T14:08:24.750Z,75.78
2016-12-28T14:09:35.512Z,75.59
2016-12-28T14:10:45.861Z,75.96
2016-12-28T14:11:56.603Z,75.59
2016-12-28T14:13:06.976Z,75.3
2016-12-28T14:14:16.548Z,75.4
2016-12-28T14:15:27.283Z,75.4
2016-12-28T14:16:37.649Z,75.4
2016-12-28T14:17:48.414Z,75.3
2016-12-28T14:18:59.173Z,75.3
2016-12-28T14:20:09.929Z,75.3
2016-12-28T14:21:20.683Z,75.68
2016-12-28T14:22:31.048Z,75.4
2016-12-28T14:23:41.401Z,75.21
2016-12-28T14:24:51.747Z,75.36
2016-12-28T14:26:02.505Z,75.36
2016-12-28T14:27:13.251Z,75.45
2016-12-28T14:28:24.016Z,75.36
2016-12-28T14:29:34.783Z,75.45
2016-12-28T14:30:45.535Z,75.17
2016-12-28T14:31:55.900Z,75.26
2016-12-28T14:33:06.646Z,75.74
2016-12-28T14:34:17.006Z,75.55
2016-12-28T14:35:26.955Z,75.84
2016-12-28T14:36:37.706Z,75.55
2016-12-28T14:37:48.104Z,75.55
2016-12-28T14:38:58.460Z,75.84
2016-12-28T14:40:08.812Z,75.84
2016-12-28T14:41:19.617Z,75.74
2016-12-28T14:42:29.965Z,75.84
2016-12-28T14:43:40.722Z,75.64
2016-12-28T14:44:51.492Z,75.45
2016-12-28T14:46:02.230Z,75.36
2016-12-28T14:47:12.578Z,75.45
2016-12-28T14:48:22.925Z,75.26
2016-12-28T14:49:33.660Z,75.36
2016-12-28T14:50:44.020Z,75.26
2016-12-28T14:51:54.370Z,75.45
2016-12-28T14:53:05.122Z,75.26
2016-12-28T14:54:15.087Z,75.26
2016-12-28T14:55:25.033Z,75.55
2016-12-28T14:56:35.401Z,75.55
2016-12-28T14:57:45.762Z,75.36
2016-12-28T14:58:56.124Z,75.36
2016-12-28T15:00:06.920Z,75.74
2016-12-28T15:01:16.501Z,75.42
2016-12-28T15:02:26.862Z,75.6
2016-12-28T15:03:37.214Z,75.32
2016-12-28T15:04:47.568Z,75.23
2016-12-28T15:05:58.313Z,75.32
2016-12-28T15:07:08.304Z,75.23
2016-12-28T15:08:19.054Z,75.51
2016-12-28T15:09:29.806Z,75.23
2016-12-28T15:10:40.175Z,75.32
2016-12-28T15:11:50.980Z,75.32
2016-12-28T15:13:01.336Z,75.51
2016-12-28T15:14:12.092Z,75.32
2016-12-28T15:15:22.844Z,75.13
2016-12-28T15:16:33.196Z,75.32
2016-12-28T15:17:43.948Z,75.51
2016-12-28T15:18:54.732Z,75.51
2016-12-28T15:20:05.096Z,75.32
2016-12-28T15:21:15.477Z,75.23
2016-12-28T15:22:26.229Z,75.23
2016-12-28T15:23:36.202Z,75.32
2016-12-28T15:24:46.592Z,75.51
2016-12-28T15:25:56.949Z,75.51
2016-12-28T15:27:07.696Z,75.32
2016-12-28T15:28:18.453Z,75.42
2016-12-28T15:29:28.407Z,75.51
2016-12-28T15:30:39.165Z,75.23
2016-12-28T15:31:49.539Z,75.23
2016-12-28T15:33:00.294Z,75.13
2016-12-28T15:34:11.279Z,75.6
2016-12-28T15:35:21.242Z,75.19
2016-12-28T15:36:32.000Z,75.23
2016-12-28T15:37:42.353Z,75.09